createdAt,value
2023-10-18T00:00:55.016Z,20.17
2023-10-18T00:02:58.212Z,23.40
2023-10-18T00:05:06.768Z,23.48
2023-10-18T00:07:12.882Z,22.55
2023-10-18T00:09:33.206Z,22.50
2023-10-18T00:11:36.415Z,22.80
2023-10-18T00:13:39.812Z,20.40
2023-10-18T00:15:41.615Z,22.52
2023-10-18T00:17:45.321Z,21.02
2023-10-18T00:19:48.337Z,17.15
2023-10-18T00:21:52.290Z,18.50
2023-10-18T00:23:55.624Z,21.05
2023-10-18T00:26:01.248Z,18.88
2023-10-18T00:28:05.032Z,18.63
2023-10-18T00:30:09.359Z,21.23
2023-10-18T00:32:12.546Z,20.15
2023-10-18T00:34:15.461Z,19.70
2023-10-18T00:36:18.729Z,22.17
2023-10-18T00:38:25.530Z,25.02
2023-10-18T00:42:45.795Z,16.42
2023-10-18T00:44:53.215Z,24.10
2023-10-18T00:46:56.941Z,22.30
2023-10-18T00:49:00.792Z,22.88
2023-10-18T00:51:04.797Z,23.48
2023-10-18T00:53:07.331Z,22.00
2023-10-18T00:55:11.851Z,21.40
2023-10-18T00:57:16.407Z,24.65
2023-10-18T00:59:22.583Z,23.48
2023-10-18T01:01:24.544Z,23.65
2023-10-18T01:03:33.842Z,24.70
2023-10-18T01:05:37.056Z,24.98
2023-10-18T01:07:40.257Z,25.23
2023-10-18T01:09:48.850Z,24.98
2023-10-18T01:11:53.337Z,23.55
2023-10-18T01:13:57.368Z,23.35
2023-10-18T01:16:00.616Z,26.02
2023-10-18T01:18:03.448Z,24.65
2023-10-18T01:20:26.487Z,27.83
2023-10-18T01:22:31.928Z,25.17
2023-10-18T01:24:36.866Z,24.13
2023-10-18T01:26:40.339Z,22.85
2023-10-18T01:28:43.392Z,24.90
2023-10-18T01:30:46.758Z,26.40
2023-10-18T01:32:50.137Z,23.77
2023-10-18T01:34:52.932Z,22.30
2023-10-18T01:36:57.849Z,25.38
2023-10-18T01:39:01.350Z,26.13
2023-10-18T01:41:10.565Z,22.90
2023-10-18T01:43:13.415Z,22.38
2023-10-18T01:45:23.092Z,23.75
2023-10-18T01:47:25.822Z,22.95
2023-10-18T01:49:29.177Z,26.67
2023-10-18T01:51:32.043Z,23.77
2023-10-18T01:53:34.759Z,27.35
2023-10-18T01:55:38.848Z,24.77
2023-10-18T01:57:45.267Z,23.17
2023-10-18T01:59:49.261Z,25.08
2023-10-18T02:01:53.010Z,26.45
2023-10-18T02:03:58.972Z,25.95
2023-10-18T02:06:00.850Z,24.85
2023-10-18T02:08:03.634Z,23.52
2023-10-18T02:10:07.744Z,23.77
2023-10-18T02:12:10.788Z,24.98
2023-10-18T02:14:15.062Z,23.92
2023-10-18T02:16:20.537Z,32.17
2023-10-18T02:18:24.006Z,24.48
2023-10-18T02:20:29.467Z,29.38
2023-10-18T02:22:32.160Z,25.63
2023-10-18T02:24:34.864Z,23.92
2023-10-18T02:26:40.843Z,25.65
2023-10-18T02:28:44.342Z,24.50
2023-10-18T02:30:48.371Z,23.70
2023-10-18T02:32:51.200Z,22.73
2023-10-18T02:34:54.013Z,23.10
2023-10-18T02:36:59.385Z,22.48
2023-10-18T02:39:01.499Z,22.98
2023-10-18T02:41:16.289Z,21.08
2023-10-18T02:43:19.016Z,29.13
2023-10-18T02:45:23.460Z,22.63
2023-10-18T02:47:27.689Z,22.92
2023-10-18T02:49:30.557Z,23.38
2023-10-18T02:51:33.438Z,23.98
2023-10-18T02:53:41.530Z,24.55
2023-10-18T02:55:49.097Z,20.30
2023-10-18T02:57:53.775Z,24.17
2023-10-18T02:59:57.925Z,28.02
2023-10-18T03:02:02.660Z,21.88
2023-10-18T03:04:09.233Z,26.50
2023-10-18T03:06:15.366Z,20.15
2023-10-18T03:08:22.073Z,22.83
2023-10-18T03:10:33.714Z,21.95
2023-10-18T03:12:37.451Z,25.15
2023-10-18T03:14:42.347Z,25.67
2023-10-18T03:16:48.318Z,22.67
2023-10-18T03:18:51.122Z,24.92
2023-10-18T03:20:57.132Z,25.98
2023-10-18T03:23:04.193Z,24.70
2023-10-18T03:25:11.843Z,22.80
2023-10-18T03:27:14.698Z,24.88
2023-10-18T03:29:17.714Z,27.35
2023-10-18T03:31:28.384Z,25.67
2023-10-18T03:33:33.447Z,25.77
2023-10-18T03:35:40.418Z,25.90
2023-10-18T03:39:54.245Z,25.60
2023-10-18T03:44:07.722Z,21.95
2023-10-18T03:46:15.068Z,24.88
2023-10-18T03:48:25.309Z,25.60
2023-10-18T03:50:36.897Z,24.33
2023-10-18T03:52:39.810Z,22.67
2023-10-18T03:54:47.064Z,24.55
2023-10-18T03:56:53.074Z,22.15
2023-10-18T03:59:04.883Z,22.02
2023-10-18T04:01:11.888Z,24.10
2023-10-18T04:03:18.171Z,21.27
2023-10-18T04:05:32.017Z,26.45
2023-10-18T04:07:36.339Z,23.98
2023-10-18T04:09:38.466Z,26.05
2023-10-18T04:11:42.747Z,23.55
2023-10-18T04:13:45.508Z,24.05
2023-10-18T04:15:51.111Z,25.65
2023-10-18T04:18:04.335Z,22.65
2023-10-18T04:20:23.495Z,23.17
2023-10-18T04:22:28.972Z,24.73
2023-10-18T04:24:33.235Z,28.70
2023-10-18T04:26:36.083Z,28.05
2023-10-18T04:28:40.445Z,28.25
2023-10-18T04:30:43.696Z,24.77
2023-10-18T04:32:46.885Z,21.98
2023-10-18T04:34:50.081Z,23.63
2023-10-18T04:36:55.884Z,22.83
2023-10-18T04:38:58.742Z,26.50
2023-10-18T04:41:08.726Z,24.00
2023-10-18T04:43:11.923Z,26.77
2023-10-18T04:45:18.368Z,25.73
2023-10-18T04:47:25.531Z,24.08
2023-10-18T04:49:37.850Z,25.50
2023-10-18T04:51:46.493Z,28.00
2023-10-18T04:53:50.569Z,28.20
2023-10-18T04:55:54.228Z,25.27
2023-10-18T04:57:56.110Z,23.15
2023-10-18T05:00:11.910Z,24.27
2023-10-18T05:02:18.663Z,26.75
2023-10-18T05:06:30.055Z,23.38
2023-10-18T05:08:37.569Z,26.10
2023-10-18T05:10:46.197Z,25.83
2023-10-18T05:12:49.706Z,23.80
2023-10-18T05:15:08.061Z,23.15
2023-10-18T05:17:18.584Z,26.80
2023-10-18T05:19:29.816Z,27.33
2023-10-18T05:21:33.085Z,25.48
2023-10-18T05:23:37.260Z,21.45
2023-10-18T05:25:46.766Z,23.27
2023-10-18T05:28:00.842Z,25.80
2023-10-18T05:30:15.826Z,27.45
2023-10-18T05:32:50.289Z,23.42
2023-10-18T05:35:12.412Z,24.10
2023-10-18T05:37:16.054Z,19.88
2023-10-18T05:39:29.251Z,22.80
2023-10-18T05:41:37.260Z,25.65
2023-10-18T05:43:43.886Z,27.02
2023-10-18T05:45:45.834Z,24.83
2023-10-18T05:47:55.390Z,28.40
2023-10-18T05:50:00.890Z,28.75
2023-10-18T05:52:17.648Z,25.92
2023-10-18T05:54:25.685Z,27.45
2023-10-18T05:56:32.700Z,28.02
2023-10-18T05:58:35.568Z,26.50
2023-10-18T06:00:38.321Z,24.33
2023-10-18T06:02:41.122Z,28.05
2023-10-18T06:04:44.766Z,28.15
2023-10-18T06:06:48.974Z,26.50
2023-10-18T06:08:51.728Z,24.25
2023-10-18T06:11:07.902Z,24.25
2023-10-18T06:13:12.217Z,24.92
2023-10-18T06:15:17.615Z,25.48
2023-10-18T06:17:23.793Z,27.15
2023-10-18T06:19:30.608Z,23.10
2023-10-18T06:21:39.195Z,23.27
2023-10-18T06:23:43.367Z,23.48
2023-10-18T06:25:46.701Z,25.00
2023-10-18T06:27:51.577Z,24.52
2023-10-18T06:29:55.218Z,24.92
2023-10-18T06:31:58.171Z,24.42
2023-10-18T06:34:03.953Z,24.60
2023-10-18T06:36:13.209Z,27.83
2023-10-18T06:38:18.983Z,27.63
2023-10-18T06:40:22.969Z,25.77
2023-10-18T06:42:28.040Z,24.73
2023-10-18T06:44:31.769Z,26.80
2023-10-18T06:46:35.403Z,24.67
2023-10-18T06:48:39.188Z,23.70
2023-10-18T06:50:42.406Z,23.23
2023-10-18T06:52:53.939Z,27.40
2023-10-18T06:54:57.229Z,24.13
2023-10-18T06:57:10.845Z,25.85
2023-10-18T06:59:14.556Z,26.85
2023-10-18T07:01:22.074Z,23.95
2023-10-18T07:03:28.748Z,21.63
2023-10-18T07:05:32.567Z,22.20
2023-10-18T07:07:35.260Z,23.13
2023-10-18T07:09:38.156Z,24.08
2023-10-18T07:11:52.007Z,28.17
2023-10-18T07:13:57.065Z,21.38
2023-10-18T07:16:03.030Z,22.00
2023-10-18T07:18:15.170Z,24.45
2023-10-18T07:20:18.002Z,24.55
2023-10-18T07:22:22.304Z,24.40
2023-10-18T07:24:26.232Z,18.65
2023-10-18T07:26:30.333Z,23.23
2023-10-18T07:28:36.583Z,22.95
2023-10-18T07:30:45.886Z,22.88
2023-10-18T07:32:59.128Z,22.35
2023-10-18T07:35:02.116Z,23.33
2023-10-18T07:37:18.666Z,19.52
2023-10-18T07:39:25.410Z,22.63
2023-10-18T07:41:28.594Z,20.80
2023-10-18T07:43:33.567Z,23.75
2023-10-18T07:45:36.738Z,22.23
2023-10-18T07:47:40.827Z,19.60
2023-10-18T07:49:46.446Z,22.80
2023-10-18T07:51:57.014Z,20.90
2023-10-18T07:54:01.060Z,20.85
2023-10-18T07:56:04.742Z,18.67
2023-10-18T07:58:18.950Z,16.98
2023-10-18T08:00:27.736Z,17.10
2023-10-18T08:02:31.799Z,16.52
2023-10-18T08:04:37.854Z,16.75
2023-10-18T08:06:40.756Z,17.05
2023-10-18T08:08:43.433Z,16.42
2023-10-18T08:10:46.385Z,19.88
2023-10-18T08:13:05.523Z,16.40
2023-10-18T08:15:15.213Z,16.25
2023-10-18T08:17:44.213Z,18.73
2023-10-18T08:19:57.216Z,18.67
2023-10-18T08:22:05.944Z,18.48
2023-10-18T08:24:10.201Z,17.23
2023-10-18T08:26:13.789Z,19.70
2023-10-18T08:28:16.652Z,19.10
2023-10-18T08:30:25.777Z,17.25
2023-10-18T08:32:31.320Z,16.08
2023-10-18T08:34:35.691Z,18.67
2023-10-18T08:36:40.104Z,16.27
2023-10-18T08:38:43.302Z,20.15
2023-10-18T08:40:46.715Z,17.77
2023-10-18T08:42:53.526Z,17.35
2023-10-18T08:44:56.685Z,17.85
2023-10-18T08:47:15.867Z,16.08
2023-10-18T08:49:24.151Z,16.45
2023-10-18T08:51:30.167Z,17.17
2023-10-18T08:53:37.393Z,15.25
2023-10-18T08:55:46.557Z,18.00
2023-10-18T08:57:56.816Z,16.88
2023-10-18T09:00:18.520Z,17.13
2023-10-18T09:02:22.922Z,16.80
2023-10-18T09:04:29.855Z,18.55
2023-10-18T09:06:33.043Z,14.80
2023-10-18T09:08:43.483Z,14.18
2023-10-18T09:10:50.988Z,13.63
2023-10-18T09:13:29.993Z,15.15
2023-10-18T09:15:48.727Z,15.38
2023-10-18T09:17:55.680Z,15.93
2023-10-18T09:20:00.000Z,14.18
2023-10-18T09:22:03.729Z,16.05
2023-10-18T09:24:08.561Z,16.83
2023-10-18T09:26:14.362Z,13.93
2023-10-18T09:28:21.931Z,13.65
2023-10-18T09:30:27.075Z,15.32
2023-10-18T09:32:34.468Z,17.60
2023-10-18T09:34:39.648Z,14.10
2023-10-18T09:36:54.377Z,14.25
2023-10-18T09:38:58.666Z,15.05
2023-10-18T09:41:02.847Z,14.02
2023-10-18T09:43:05.866Z,13.55
2023-10-18T09:45:09.725Z,14.60
2023-10-18T09:47:13.173Z,15.38
2023-10-18T09:49:22.668Z,17.92
2023-10-18T09:51:25.840Z,15.00
2023-10-18T09:53:31.879Z,14.73
2023-10-18T09:55:36.525Z,13.40
2023-10-18T09:57:42.569Z,15.20
2023-10-18T09:59:48.660Z,12.60
2023-10-18T10:02:08.807Z,12.75
2023-10-18T10:04:15.146Z,13.93
2023-10-18T10:06:22.214Z,13.38
2023-10-18T10:08:25.761Z,12.18
2023-10-18T10:10:44.651Z,14.25
2023-10-18T10:12:58.316Z,16.45
2023-10-18T10:15:01.057Z,15.40
2023-10-18T10:17:08.859Z,14.88
2023-10-18T10:19:14.224Z,17.80
2023-10-18T10:21:22.340Z,13.20
2023-10-18T10:23:25.441Z,14.27
2023-10-18T10:25:38.728Z,11.30
2023-10-18T10:27:59.418Z,14.73
2023-10-18T10:30:04.775Z,11.13
2023-10-18T10:32:07.642Z,12.82
2023-10-18T10:34:16.361Z,13.25
2023-10-18T10:36:20.627Z,10.05
2023-10-18T10:38:27.856Z,11.50
2023-10-18T10:40:37.672Z,10.77
2023-10-18T10:42:47.896Z,11.82
2023-10-18T10:44:58.220Z,10.15
2023-10-18T10:47:32.122Z,10.00
2023-10-18T10:49:49.928Z,10.45
2023-10-18T10:51:57.820Z,9.98
2023-10-18T10:54:02.348Z,10.40
2023-10-18T10:56:18.196Z,10.75
2023-10-18T10:58:23.324Z,11.43
2023-10-18T11:00:39.679Z,8.77
2023-10-18T11:02:47.085Z,9.45
2023-10-18T11:04:59.179Z,9.40
2023-10-18T11:07:05.224Z,10.02
2023-10-18T11:09:09.671Z,9.13
2023-10-18T11:11:14.979Z,10.90
2023-10-18T11:13:23.992Z,9.50
2023-10-18T11:15:29.051Z,9.90
2023-10-18T11:17:31.163Z,9.77
2023-10-18T11:19:34.098Z,9.40
2023-10-18T11:21:39.359Z,9.00
2023-10-18T11:23:42.597Z,8.93
2023-10-18T11:25:46.883Z,9.68
2023-10-18T11:27:49.639Z,10.88
2023-10-18T11:29:57.055Z,9.63
2023-10-18T11:32:01.500Z,8.85
2023-10-18T11:34:07.626Z,8.68
2023-10-18T11:36:10.065Z,8.20
2023-10-18T11:38:13.864Z,10.32
2023-10-18T11:40:17.251Z,8.82
2023-10-18T11:42:20.424Z,9.90
2023-10-18T11:44:32.790Z,7.70
2023-10-18T11:46:48.691Z,7.95
2023-10-18T11:48:56.136Z,7.55
2023-10-18T11:51:00.415Z,7.63
2023-10-18T11:53:09.906Z,6.60
2023-10-18T11:55:12.649Z,6.97
2023-10-18T11:57:30.972Z,8.07
2023-10-18T11:59:52.537Z,7.57
2023-10-18T12:01:55.870Z,7.32
2023-10-18T12:04:00.317Z,7.45
2023-10-18T12:06:04.508Z,7.78
2023-10-18T12:08:13.586Z,6.38
2023-10-18T12:10:18.185Z,6.97
2023-10-18T12:12:21.468Z,9.93
2023-10-18T12:14:23.948Z,6.95
2023-10-18T12:16:26.934Z,7.88
2023-10-18T12:18:30.310Z,7.78
2023-10-18T12:20:38.003Z,7.68
2023-10-18T12:22:43.786Z,7.38
2023-10-18T12:24:45.863Z,7.65
2023-10-18T12:26:54.859Z,6.40
2023-10-18T12:28:58.170Z,7.35
2023-10-18T12:31:02.584Z,7.65
2023-10-18T12:33:07.463Z,6.10
2023-10-18T12:35:14.473Z,8.48
2023-10-18T12:37:19.669Z,6.22
2023-10-18T12:39:23.220Z,8.80
2023-10-18T12:41:32.838Z,6.53
2023-10-18T12:43:40.729Z,7.13
2023-10-18T12:45:44.309Z,6.50
2023-10-18T12:47:48.920Z,7.70
2023-10-18T12:49:52.839Z,7.55
2023-10-18T12:52:02.133Z,6.60
2023-10-18T12:54:07.045Z,7.78
2023-10-18T12:56:27.405Z,6.47
2023-10-18T12:58:31.863Z,7.13
2023-10-18T13:00:43.980Z,5.63
2023-10-18T13:02:52.340Z,6.80
2023-10-18T13:05:01.070Z,7.13
2023-10-18T13:07:20.539Z,8.40
2023-10-18T13:09:24.210Z,8.48
2023-10-18T13:11:44.406Z,7.72
2023-10-18T13:13:48.022Z,7.93
2023-10-18T13:15:49.998Z,7.40
2023-10-18T13:17:53.325Z,8.07
2023-10-18T13:19:58.584Z,6.60
2023-10-18T13:22:05.643Z,12.40
2023-10-18T13:24:18.979Z,10.10
2023-10-18T13:26:28.275Z,6.68
2023-10-18T13:28:35.548Z,6.78
2023-10-18T13:30:44.482Z,8.60
2023-10-18T13:32:47.416Z,7.53
2023-10-18T13:34:50.219Z,7.85
2023-10-18T13:36:54.216Z,7.60
2023-10-18T13:38:57.002Z,6.35
2023-10-18T13:41:01.751Z,8.25
2023-10-18T13:43:06.332Z,10.90
2023-10-18T13:45:11.858Z,8.48
2023-10-18T13:47:14.802Z,6.78
2023-10-18T13:49:18.365Z,8.77
2023-10-18T13:51:22.255Z,9.75
2023-10-18T13:53:25.088Z,8.00
2023-10-18T13:55:27.867Z,8.30
2023-10-18T13:57:31.961Z,10.02
2023-10-18T13:59:39.326Z,8.63
2023-10-18T14:01:43.703Z,9.27
2023-10-18T14:03:48.920Z,9.13
2023-10-18T14:05:51.889Z,10.02
2023-10-18T14:07:54.631Z,8.48
2023-10-18T14:09:57.358Z,9.57
2023-10-18T14:12:02.266Z,10.07
2023-10-18T14:14:05.057Z,9.52
2023-10-18T14:16:13.408Z,10.68
2023-10-18T14:18:16.819Z,10.90
2023-10-18T14:20:26.092Z,11.73
2023-10-18T14:22:28.862Z,13.23
2023-10-18T14:24:33.033Z,11.02
2023-10-18T14:26:37.955Z,14.07
2023-10-18T14:28:42.019Z,11.38
2023-10-18T14:30:47.968Z,10.93
2023-10-18T14:32:52.276Z,10.23
2023-10-18T14:34:55.315Z,10.32
2023-10-18T14:36:58.163Z,13.38
2023-10-18T14:39:00.067Z,12.52
2023-10-18T14:41:09.210Z,12.00
2023-10-18T14:43:17.135Z,12.77
2023-10-18T14:45:18.795Z,11.25
2023-10-18T14:47:21.585Z,12.18
2023-10-18T14:49:25.806Z,9.50
2023-10-18T14:51:28.650Z,13.02
2023-10-18T14:53:32.388Z,9.75
2023-10-18T14:55:38.808Z,11.63
2023-10-18T14:57:42.045Z,11.32
2023-10-18T14:59:44.856Z,10.60
2023-10-18T15:01:47.607Z,13.10
2023-10-18T15:03:51.518Z,13.95
2023-10-18T15:05:55.899Z,14.25
2023-10-18T15:07:59.342Z,13.02
2023-10-18T15:10:03.257Z,12.60
2023-10-18T15:12:07.557Z,12.30
2023-10-18T15:14:12.882Z,13.73
2023-10-18T15:16:16.812Z,11.77
2023-10-18T15:18:19.572Z,15.45
2023-10-18T15:20:23.304Z,15.18
2023-10-18T15:22:27.644Z,12.57
2023-10-18T15:24:30.694Z,16.70
2023-10-18T15:26:39.253Z,13.45
2023-10-18T15:28:42.033Z,13.20
2023-10-18T15:30:44.823Z,16.90
2023-10-18T15:32:47.660Z,13.93
2023-10-18T15:34:51.292Z,13.50
2023-10-18T15:36:55.278Z,14.50
2023-10-18T15:39:00.461Z,16.17
2023-10-18T15:41:06.625Z,15.43
2023-10-18T15:43:10.878Z,15.90
2023-10-18T15:45:13.748Z,53.55
2023-10-18T15:47:16.460Z,26.17
2023-10-18T15:49:19.385Z,92.90
2023-10-18T15:51:23.157Z,20.83
2023-10-18T15:53:30.270Z,16.75
2023-10-18T15:55:37.017Z,14.77
2023-10-18T15:57:39.764Z,14.85
2023-10-18T15:59:42.511Z,13.30
2023-10-18T16:01:57.951Z,13.68
2023-10-18T16:04:03.127Z,13.57
2023-10-18T16:06:06.357Z,18.45
2023-10-18T16:08:09.279Z,16.13
2023-10-18T16:10:13.990Z,15.85
2023-10-18T16:12:18.445Z,15.30
2023-10-18T16:14:20.221Z,18.08
2023-10-18T16:16:25.719Z,16.17
2023-10-18T16:18:29.762Z,20.38
2023-10-18T16:20:32.637Z,16.75
2023-10-18T16:22:35.454Z,17.65
2023-10-18T16:24:39.941Z,14.93
2023-10-18T16:26:42.722Z,16.98
2023-10-18T16:28:47.503Z,16.05
2023-10-18T16:30:50.310Z,19.33
2023-10-18T16:32:56.109Z,18.70
2023-10-18T16:34:59.026Z,16.40
2023-10-18T16:37:03.515Z,19.00
2023-10-18T16:39:06.615Z,15.50
2023-10-18T16:41:09.650Z,18.05
2023-10-18T16:43:12.679Z,15.93
2023-10-18T16:45:17.830Z,19.50
2023-10-18T16:47:22.442Z,15.20
2023-10-18T16:49:25.316Z,17.40
2023-10-18T16:51:27.078Z,19.15
2023-10-18T16:53:29.921Z,16.40
2023-10-18T16:55:35.229Z,18.75
2023-10-18T16:57:37.100Z,18.75
2023-10-18T16:59:39.964Z,19.42
2023-10-18T17:01:44.484Z,20.63
2023-10-18T17:03:49.099Z,19.40
2023-10-18T17:05:56.340Z,21.08
2023-10-18T17:08:00.217Z,21.05
2023-10-18T17:10:02.999Z,20.52
2023-10-18T17:12:07.130Z,21.60
2023-10-18T17:14:16.004Z,21.38
2023-10-18T17:16:19.132Z,20.27
2023-10-18T17:18:23.816Z,17.70
2023-10-18T17:20:27.942Z,21.08
2023-10-18T17:22:32.200Z,25.70
2023-10-18T17:24:34.927Z,23.75
2023-10-18T17:26:38.727Z,24.90
2023-10-18T17:28:41.471Z,26.45
2023-10-18T17:30:44.267Z,29.05
2023-10-18T17:32:47.219Z,25.88
2023-10-18T17:34:51.470Z,26.20
2023-10-18T17:36:54.477Z,27.15
2023-10-18T17:38:57.288Z,24.70
2023-10-18T17:41:00.839Z,26.30
2023-10-18T17:43:05.466Z,25.42
2023-10-18T17:45:11.171Z,24.52
2023-10-18T17:47:15.194Z,23.27
2023-10-18T17:49:19.456Z,23.98
2023-10-18T17:51:23.939Z,25.63
2023-10-18T17:53:25.617Z,27.10
2023-10-18T17:55:28.532Z,28.85
2023-10-18T17:57:35.390Z,29.33
2023-10-18T17:59:41.076Z,26.83
2023-10-18T18:01:43.923Z,26.77
2023-10-18T18:03:46.873Z,24.70
2023-10-18T18:05:50.465Z,25.58
2023-10-18T18:07:55.621Z,25.63
2023-10-18T18:09:58.591Z,22.77
2023-10-18T18:12:01.299Z,27.15
2023-10-18T18:14:07.234Z,24.73
2023-10-18T18:16:10.359Z,22.17
2023-10-18T18:18:14.069Z,27.33
2023-10-18T18:20:20.473Z,27.48
2023-10-18T18:22:24.640Z,26.85
2023-10-18T18:24:28.706Z,24.30
2023-10-18T18:26:31.438Z,27.40
2023-10-18T18:28:34.280Z,30.40
2023-10-18T18:30:36.969Z,27.17
2023-10-18T18:32:40.562Z,29.52
2023-10-18T18:34:45.285Z,33.28
2023-10-18T18:36:48.048Z,32.20
2023-10-18T18:38:50.780Z,31.35
2023-10-18T18:40:55.124Z,32.65
2023-10-18T18:42:58.074Z,32.63
2023-10-18T18:45:00.937Z,27.23
2023-10-18T18:47:03.824Z,28.38
2023-10-18T18:49:07.764Z,26.95
2023-10-18T18:51:12.264Z,30.80
2023-10-18T18:53:15.091Z,30.40
2023-10-18T18:55:18.452Z,32.47
2023-10-18T18:57:22.461Z,32.60
2023-10-18T18:59:25.199Z,30.17
2023-10-18T19:01:28.000Z,29.52
2023-10-18T19:03:31.069Z,30.08
2023-10-18T19:05:34.577Z,26.70
2023-10-18T19:07:37.379Z,28.67
2023-10-18T19:09:40.605Z,25.83
2023-10-18T19:11:43.685Z,27.77
2023-10-18T19:13:47.875Z,30.73
2023-10-18T19:15:50.573Z,27.90
2023-10-18T19:17:53.398Z,25.05
2023-10-18T19:19:56.174Z,25.33
2023-10-18T19:21:59.617Z,25.50
2023-10-18T19:24:02.527Z,28.33
2023-10-18T19:26:09.515Z,28.55
2023-10-18T19:28:12.239Z,31.95
2023-10-18T19:30:17.680Z,26.80
2023-10-18T19:32:20.414Z,29.00
2023-10-18T19:34:24.150Z,30.05
2023-10-18T19:36:26.881Z,32.25
2023-10-18T19:38:29.587Z,34.05
2023-10-18T19:40:32.709Z,31.23
2023-10-18T19:42:35.687Z,30.27
2023-10-18T19:44:38.435Z,32.72
2023-10-18T19:46:42.541Z,35.50
2023-10-18T19:48:45.319Z,35.08
2023-10-18T19:50:48.338Z,33.72
2023-10-18T19:52:54.152Z,36.88
2023-10-18T19:54:57.965Z,35.53
2023-10-18T19:57:01.800Z,35.78
2023-10-18T19:59:04.938Z,35.55
2023-10-18T20:01:08.242Z,36.80
2023-10-18T20:03:14.817Z,35.53
2023-10-18T20:05:17.757Z,35.33
2023-10-18T20:07:20.516Z,37.58
2023-10-18T20:09:23.214Z,36.53
2023-10-18T20:11:26.035Z,39.05
2023-10-18T20:13:32.203Z,33.88
2023-10-18T20:15:35.900Z,36.75
2023-10-18T20:17:38.798Z,33.22
2023-10-18T20:19:42.974Z,38.03
2023-10-18T20:21:46.204Z,47.95
2023-10-18T20:23:48.974Z,44.00
2023-10-18T20:25:58.522Z,36.55
2023-10-18T20:28:01.301Z,31.45
2023-10-18T20:30:07.131Z,28.77
2023-10-18T20:32:09.925Z,40.30
2023-10-18T20:34:12.730Z,39.35
2023-10-18T20:36:17.102Z,36.70
2023-10-18T20:38:19.853Z,39.70
2023-10-18T20:40:22.768Z,30.27
2023-10-18T20:42:25.882Z,29.52
2023-10-18T20:44:28.767Z,31.92
2023-10-18T20:46:33.354Z,29.27
2023-10-18T20:48:36.024Z,34.13
2023-10-18T20:50:41.169Z,30.38
2023-10-18T20:52:46.954Z,29.45
2023-10-18T20:54:50.014Z,32.47
2023-10-18T20:57:11.040Z,31.02
2023-10-18T20:59:16.094Z,35.30
2023-10-18T21:01:22.978Z,28.77
2023-10-18T21:03:26.353Z,29.88
2023-10-18T21:05:30.285Z,29.95
2023-10-18T21:07:33.031Z,30.88
2023-10-18T21:09:37.043Z,29.42
2023-10-18T21:11:39.752Z,24.88
2023-10-18T21:13:43.295Z,33.10
2023-10-18T21:15:45.945Z,28.15
2023-10-18T21:17:49.359Z,27.30
2023-10-18T21:19:52.102Z,28.38
2023-10-18T21:21:54.883Z,25.33
2023-10-18T21:23:57.743Z,27.98
2023-10-18T21:26:02.463Z,27.10
2023-10-18T21:28:06.444Z,29.08
2023-10-18T21:30:11.910Z,27.23
2023-10-18T21:32:14.800Z,28.00
2023-10-18T21:34:17.714Z,25.27
2023-10-18T21:36:20.846Z,27.52
2023-10-18T21:38:22.758Z,27.65
2023-10-18T21:40:25.788Z,26.50
2023-10-18T21:42:30.120Z,25.45
2023-10-18T21:44:33.083Z,24.92
2023-10-18T21:46:36.473Z,25.58
2023-10-18T21:48:40.026Z,29.27
2023-10-18T21:50:41.766Z,25.05
2023-10-18T21:52:44.532Z,29.92
2023-10-18T21:54:46.311Z,25.50
2023-10-18T21:56:49.006Z,26.50
2023-10-18T21:58:53.084Z,27.83
2023-10-18T22:00:56.887Z,28.70
2023-10-18T22:03:02.504Z,24.98
2023-10-18T22:05:05.924Z,26.67
2023-10-18T22:07:07.721Z,25.02
2023-10-18T22:09:25.401Z,24.60
2023-10-18T22:11:31.546Z,27.13
2023-10-18T22:13:34.798Z,28.13
2023-10-18T22:15:47.988Z,28.98
2023-10-18T22:17:52.090Z,25.00
2023-10-18T22:19:58.809Z,29.40
2023-10-18T22:22:12.504Z,24.60
2023-10-18T22:24:21.133Z,27.05
2023-10-18T22:26:29.242Z,27.35
2023-10-18T22:28:31.954Z,27.80
2023-10-18T22:30:38.109Z,25.83
2023-10-18T22:32:42.454Z,27.00
2023-10-18T22:34:47.390Z,28.83
2023-10-18T22:36:50.299Z,30.63
2023-10-18T22:38:53.358Z,29.02
2023-10-18T22:41:11.732Z,26.83
2023-10-18T22:43:14.606Z,31.15
2023-10-18T22:45:27.793Z,28.77
2023-10-18T22:47:38.017Z,27.42
2023-10-18T22:49:43.151Z,31.05
2023-10-18T22:51:48.379Z,28.40
2023-10-18T22:53:53.326Z,28.15
2023-10-18T22:55:58.460Z,25.23
2023-10-18T22:58:01.259Z,24.30
2023-10-18T23:00:09.222Z,28.08
2023-10-18T23:02:12.088Z,27.23
2023-10-18T23:04:15.921Z,26.88
2023-10-18T23:06:22.216Z,26.05
2023-10-18T23:08:27.855Z,31.25
2023-10-18T23:10:50.178Z,29.55
2023-10-18T23:12:55.552Z,28.25
2023-10-18T23:15:03.774Z,27.50
2023-10-18T23:17:11.043Z,28.60
2023-10-18T23:19:32.678Z,27.45
2023-10-18T23:21:42.593Z,26.45
2023-10-18T23:23:55.629Z,32.20
2023-10-18T23:26:19.215Z,28.95
2023-10-18T23:28:31.594Z,29.77
2023-10-18T23:30:40.024Z,27.73
2023-10-18T23:32:53.640Z,27.80
2023-10-18T23:34:56.680Z,25.35
2023-10-18T23:37:13.214Z,28.65
2023-10-18T23:39:16.152Z,24.55
2023-10-18T23:41:29.891Z,23.90
2023-10-18T23:43:49.240Z,27.20
2023-10-18T23:45:58.021Z,23.67
2023-10-18T23:48:28.767Z,28.27
2023-10-18T23:50:35.201Z,28.77
2023-10-18T23:52:49.900Z,28.92
2023-10-18T23:54:56.297Z,29.88
2023-10-18T23:57:01.631Z,27.95
2023-10-18T23:59:07.376Z,28.70
